Time;durP1;ratioP1;P1;durP2;ratioP2;P2;SDS_P1;SDS_P2;PMS_P1;PMS_P2;Temp;Humidity;BMP_temperature;BMP_pressure;BME280_temperature;BME280_humidity;BME280_pressure;Samples;Min_cycle;Max_cycle;Signal;HPM_P1;HPM_P2
2023/09/20 00:02:12;;;;;;;15.00;11.57;;;;;;;;;;5026924;28;20033;-85
2023/09/20 00:04:39;;;;;;;15.40;12.15;;;;;;;;;;5013034;28;20523;-83
2023/09/20 00:07:07;;;;;;;15.35;11.57;;;;;;;;;;5048259;28;20032;-83
2023/09/20 00:09:34;;;;;;;18.73;11.80;;;;;;;;;;5009829;28;20552;-84
2023/09/20 00:12:00;;;;;;;16.00;11.98;;;;;;;;;;5031321;28;20057;-84
2023/09/20 00:14:29;;;;;;;16.73;11.82;;;;;;;;;;5047144;28;20514;-84
2023/09/20 00:16:55;;;;;;;15.02;11.55;;;;;;;;;;5029247;28;20095;-83
2023/09/20 00:19:22;;;;;;;16.10;11.80;;;;;;;;;;5013124;28;20313;-83
2023/09/20 00:21:49;;;;;;;14.75;11.60;;;;;;;;;;5027106;28;20090;-83
2023/09/20 00:24:15;;;;;;;15.38;11.30;;;;;;;;;;5011534;28;20068;-84
2023/09/20 00:26:41;;;;;;;14.10;11.15;;;;;;;;;;5013301;28;20572;-88
2023/09/20 00:29:08;;;;;;;14.40;11.05;;;;;;;;;;5013502;28;20143;-87
2023/09/20 00:31:35;;;;;;;14.93;11.23;;;;;;;;;;5026317;28;20044;-87
2023/09/20 00:34:04;;;;;;;17.08;11.90;;;;;;;;;;5049315;28;20447;-86
2023/09/20 00:36:30;;;;;;;14.27;11.40;;;;;;;;;;5012112;28;20082;-87
2023/09/20 00:38:57;;;;;;;14.27;11.73;;;;;;;;;;5012899;28;20094;-87
2023/09/20 00:41:25;;;;;;;18.33;12.15;;;;;;;;;;5027031;28;20033;-86
2023/09/20 00:43:52;;;;;;;15.27;11.30;;;;;;;;;;5029612;28;20041;-86
2023/09/20 00:46:22;;;;;;;13.57;10.73;;;;;;;;;;5011907;28;20044;-85
2023/09/20 00:48:51;;;;;;;16.15;11.57;;;;;;;;;;5028100;28;20036;-87
2023/09/20 00:51:18;;;;;;;15.32;10.95;;;;;;;;;;5013193;28;20028;-85
2023/09/20 00:53:45;;;;;;;14.02;11.70;;;;;;;;;;5045059;28;20068;-87
2023/09/20 00:56:11;;;;;;;14.95;11.38;;;;;;;;;;5014197;28;20025;-86
2023/09/20 00:58:38;;;;;;;15.90;11.38;;;;;;;;;;5012444;28;20072;-84
2023/09/20 01:01:05;;;;;;;13.27;11.40;;;;;;;;;;5027851;28;20033;-84
2023/09/20 01:03:34;;;;;;;16.20;12.40;;;;;;;;;;5043693;28;20041;-83
2023/09/20 01:06:04;;;;;;;15.10;11.25;;;;;;;;;;5028587;28;20456;-83
2023/09/20 01:08:32;;;;;;;18.95;10.88;;;;;;;;;;5025664;28;20504;-84
2023/09/20 01:10:59;;;;;;;14.02;11.20;;;;;;;;;;5044151;28;20091;-82
2023/09/20 01:13:25;;;;;;;14.63;11.25;;;;;;;;;;5028203;28;20028;-84
2023/09/20 01:15:55;;;;;;;14.63;11.75;;;;;;;;;;5023320;28;20090;-84
2023/09/20 01:18:21;;;;;;;14.57;11.43;;;;;;;;;;4994162;28;20039;-83
2023/09/20 01:20:48;;;;;;;15.13;11.13;;;;;;;;;;5011263;28;20074;-86
2023/09/20 01:23:14;;;;;;;13.90;11.82;;;;;;;;;;5029543;28;20530;-83
2023/09/20 01:25:43;;;;;;;14.65;11.73;;;;;;;;;;5013543;28;20055;-83
2023/09/20 01:28:10;;;;;;;14.63;11.60;;;;;;;;;;5011786;28;20461;-84
2023/09/20 01:30:38;;;;;;;14.73;11.13;;;;;;;;;;5019637;28;20278;-84
2023/09/20 01:33:07;;;;;;;14.32;11.32;;;;;;;;;;5008752;28;20479;-84
2023/09/20 01:35:36;;;;;;;12.50;11.00;;;;;;;;;;5044480;28;20032;-84
2023/09/20 01:38:06;;;;;;;16.33;11.80;;;;;;;;;;5011332;28;20233;-82
2023/09/20 01:40:33;;;;;;;16.08;11.18;;;;;;;;;;5010952;28;20094;-84
2023/09/20 01:43:00;;;;;;;17.23;11.35;;;;;;;;;;5044406;28;20085;-82
2023/09/20 01:45:26;;;;;;;13.52;11.20;;;;;;;;;;5039980;28;20033;-83
2023/09/20 01:47:53;;;;;;;15.90;12.27;;;;;;;;;;5009213;28;20116;-83
2023/09/20 01:50:24;;;;;;;15.68;11.23;;;;;;;;;;5041856;28;20036;-84
2023/09/20 01:52:54;;;;;;;17.08;11.18;;;;;;;;;;5044715;28;20187;-83
2023/09/20 01:55:21;;;;;;;14.43;11.45;;;;;;;;;;5026042;28;20098;-81
2023/09/20 01:57:50;;;;;;;16.63;11.85;;;;;;;;;;5009303;28;20033;-81
2023/09/20 02:00:21;;;;;;;15.65;11.40;;;;;;;;;;5026240;28;20596;-82
2023/09/20 02:02:50;;;;;;;14.88;11.70;;;;;;;;;;5026163;28;20411;-81
2023/09/20 02:05:17;;;;;;;16.83;11.55;;;;;;;;;;5023261;28;20407;-82
2023/09/20 02:07:46;;;;;;;15.43;11.93;;;;;;;;;;5028225;28;20441;-85
2023/09/20 02:10:13;;;;;;;14.73;11.00;;;;;;;;;;5047656;28;20040;-84
2023/09/20 02:12:40;;;;;;;16.27;11.48;;;;;;;;;;5047511;28;20037;-84
2023/09/20 02:15:10;;;;;;;13.45;10.60;;;;;;;;;;5031502;28;20534;-84
2023/09/20 02:17:39;;;;;;;14.77;11.18;;;;;;;;;;5011222;28;20037;-85
2023/09/20 02:20:09;;;;;;;15.43;11.40;;;;;;;;;;5027229;28;20025;-83
2023/09/20 02:22:36;;;;;;;13.15;10.70;;;;;;;;;;5048540;28;20033;-81
2023/09/20 02:25:05;;;;;;;16.48;11.50;;;;;;;;;;5026429;28;20064;-84
2023/09/20 02:27:31;;;;;;;15.13;11.02;;;;;;;;;;5021255;28;20037;-82
2023/09/20 02:29:58;;;;;;;13.50;10.93;;;;;;;;;;5030013;28;20036;-82
2023/09/20 02:32:24;;;;;;;15.00;11.90;;;;;;;;;;5027828;28;20075;-84
2023/09/20 02:34:51;;;;;;;13.27;10.75;;;;;;;;;;5014318;28;20040;-83
2023/09/20 02:37:18;;;;;;;13.70;10.88;;;;;;;;;;5005471;28;20029;-86
2023/09/20 02:39:45;;;;;;;14.18;10.65;;;;;;;;;;5004365;28;20029;-86
2023/09/20 02:42:11;;;;;;;16.23;11.27;;;;;;;;;;5016063;28;20033;-86
2023/09/20 02:44:38;;;;;;;11.82;9.93;;;;;;;;;;5048641;28;20075;-87
2023/09/20 02:47:04;;;;;;;14.55;11.15;;;;;;;;;;5031860;28;20036;-85
2023/09/20 02:49:34;;;;;;;12.90;10.30;;;;;;;;;;5031516;28;20033;-85
2023/09/20 02:52:00;;;;;;;16.05;11.35;;;;;;;;;;5028494;28;20040;-87
2023/09/20 02:54:28;;;;;;;14.30;10.95;;;;;;;;;;5029767;28;20380;-85
2023/09/20 02:56:55;;;;;;;12.93;10.50;;;;;;;;;;5027148;28;20041;-82
2023/09/20 02:59:21;;;;;;;11.48;9.98;;;;;;;;;;5046579;28;20415;-85
2023/09/20 03:01:49;;;;;;;12.02;10.38;;;;;;;;;;5063346;28;20099;-83
2023/09/20 03:04:17;;;;;;;14.40;10.32;;;;;;;;;;5029619;28;20036;-80
2023/09/20 03:06:44;;;;;;;12.55;10.43;;;;;;;;;;5013833;28;20036;-81
2023/09/20 03:09:11;;;;;;;14.13;10.57;;;;;;;;;;5047218;28;20124;-80
2023/09/20 03:11:38;;;;;;;12.30;10.00;;;;;;;;;;5014491;28;20537;-79
2023/09/20 03:14:05;;;;;;;16.30;10.70;;;;;;;;;;5045958;28;20033;-82
2023/09/20 03:16:34;;;;;;;14.65;11.02;;;;;;;;;;5022447;28;20033;-81
2023/09/20 03:19:01;;;;;;;14.48;10.10;;;;;;;;;;5040905;28;20059;-80
2023/09/20 03:21:28;;;;;;;13.68;11.10;;;;;;;;;;5029563;28;20086;-82
2023/09/20 03:23:55;;;;;;;14.27;11.13;;;;;;;;;;5043500;28;20452;-82
2023/09/20 03:26:22;;;;;;;12.88;10.10;;;;;;;;;;5027014;28;20112;-81
2023/09/20 03:28:49;;;;;;;14.95;10.45;;;;;;;;;;5047020;28;20044;-82
2023/09/20 03:31:16;;;;;;;11.98;10.70;;;;;;;;;;5013037;28;20040;-81
2023/09/20 03:33:42;;;;;;;15.10;11.00;;;;;;;;;;5045708;28;20483;-81
2023/09/20 03:36:17;;;;;;;15.13;10.20;;;;;;;;;;5043965;28;20037;-87
2023/09/20 03:38:48;;;;;;;14.18;10.30;;;;;;;;;;5025996;28;20044;-89
2023/09/20 03:41:15;;;;;;;14.55;11.10;;;;;;;;;;5031073;28;20037;-82
2023/09/20 03:43:44;;;;;;;13.65;10.77;;;;;;;;;;5048245;28;20040;-88
2023/09/20 03:46:10;;;;;;;13.52;10.27;;;;;;;;;;5030114;28;20032;-88
2023/09/20 03:48:36;;;;;;;14.60;11.13;;;;;;;;;;5029467;28;20475;-87
2023/09/20 03:51:04;;;;;;;15.68;11.20;;;;;;;;;;5028210;28;20074;-86
2023/09/20 03:53:34;;;;;;;14.32;11.10;;;;;;;;;;5042108;28;20049;-87
2023/09/20 03:56:01;;;;;;;15.15;11.00;;;;;;;;;;5010299;28;20508;-84
2023/09/20 03:58:27;;;;;;;14.88;11.05;;;;;;;;;;5007261;28;21165;-84
2023/09/20 04:00:56;;;;;;;15.10;11.32;;;;;;;;;;5039302;28;20073;-82
2023/09/20 04:03:23;;;;;;;18.15;11.10;;;;;;;;;;5025612;28;20491;-87
2023/09/20 04:05:50;;;;;;;17.00;10.95;;;;;;;;;;5040333;28;20112;-89
2023/09/20 04:08:19;;;;;;;13.23;11.07;;;;;;;;;;5041981;28;20029;-84
2023/09/20 04:10:46;;;;;;;14.98;11.30;;;;;;;;;;4989888;28;20049;-86
2023/09/20 04:13:13;;;;;;;14.88;11.38;;;;;;;;;;5034337;28;20038;-87
2023/09/20 04:15:42;;;;;;;16.15;11.13;;;;;;;;;;5029969;28;20091;-88
2023/09/20 04:18:12;;;;;;;13.95;10.98;;;;;;;;;;5033561;28;20103;-84
2023/09/20 04:20:39;;;;;;;14.98;11.23;;;;;;;;;;5020236;28;20831;-83
2023/09/20 04:23:06;;;;;;;17.25;11.35;;;;;;;;;;5023320;28;20025;-81
2023/09/20 04:25:32;;;;;;;13.73;11.32;;;;;;;;;;5024855;28;20042;-83
2023/09/20 04:27:59;;;;;;;13.73;10.63;;;;;;;;;;5023728;28;20043;-81
2023/09/20 04:30:25;;;;;;;15.43;10.88;;;;;;;;;;5040770;28;20112;-92
2023/09/20 04:32:51;;;;;;;13.98;11.38;;;;;;;;;;5022646;28;20022;-85
2023/09/20 04:35:26;;;;;;;13.70;10.90;;;;;;;;;;5028119;28;20492;-84
2023/09/20 04:37:53;;;;;;;14.98;11.00;;;;;;;;;;5024067;28;20041;-82
2023/09/20 04:40:21;;;;;;;13.02;10.75;;;;;;;;;;5025805;28;20037;-83
2023/09/20 04:42:48;;;;;;;13.77;10.63;;;;;;;;;;5026111;28;20824;-82
2023/09/20 04:45:14;;;;;;;13.07;11.20;;;;;;;;;;5027625;28;20479;-80
2023/09/20 04:47:42;;;;;;;12.73;10.38;;;;;;;;;;5022935;28;20392;-81
2023/09/20 04:50:08;;;;;;;15.82;12.13;;;;;;;;;;5008319;28;20041;-84
2023/09/20 04:52:34;;;;;;;14.35;10.80;;;;;;;;;;5006347;28;20449;-83
2023/09/20 04:55:01;;;;;;;15.65;12.15;;;;;;;;;;5026502;28;20098;-80
2023/09/20 04:57:28;;;;;;;16.10;10.98;;;;;;;;;;4994132;28;20033;-80
2023/09/20 04:59:54;;;;;;;15.75;11.18;;;;;;;;;;5012819;28;20079;-82
2023/09/20 05:02:22;;;;;;;15.98;11.32;;;;;;;;;;5008196;28;20193;-81
2023/09/20 05:04:49;;;;;;;15.82;11.52;;;;;;;;;;5011516;28;20500;-80
2023/09/20 05:07:16;;;;;;;15.10;10.63;;;;;;;;;;5026578;28;20586;-78
2023/09/20 05:09:44;;;;;;;14.02;10.73;;;;;;;;;;5038848;28;20055;-81
2023/09/20 05:12:12;;;;;;;15.07;11.38;;;;;;;;;;5023526;28;20025;-80
2023/09/20 05:14:39;;;;;;;13.65;10.70;;;;;;;;;;5043597;28;20031;-81
2023/09/20 05:17:05;;;;;;;13.38;10.25;;;;;;;;;;5026739;28;20029;-81
2023/09/20 05:19:33;;;;;;;13.50;10.48;;;;;;;;;;5026660;28;20079;-80
2023/09/20 05:22:00;;;;;;;14.98;10.43;;;;;;;;;;5024542;28;20041;-79
2023/09/20 05:24:27;;;;;;;12.73;10.05;;;;;;;;;;5043501;28;20040;-80
2023/09/20 05:26:53;;;;;;;10.85;8.73;;;;;;;;;;5045112;28;20029;-81
2023/09/20 05:29:21;;;;;;;15.27;9.70;;;;;;;;;;5059459;28;20083;-80
2023/09/20 05:31:47;;;;;;;11.57;9.02;;;;;;;;;;5044905;28;20112;-80
2023/09/20 05:34:13;;;;;;;10.93;8.68;;;;;;;;;;5025999;28;20033;-81
2023/09/20 05:36:43;;;;;;;12.73;9.30;;;;;;;;;;5059676;28;20377;-80
2023/09/20 05:39:12;;;;;;;11.50;9.10;;;;;;;;;;5045825;28;20037;-80
2023/09/20 05:41:39;;;;;;;10.43;8.95;;;;;;;;;;5028731;28;20035;-81
2023/09/20 05:44:06;;;;;;;9.50;8.48;;;;;;;;;;5054690;28;20036;-80
2023/09/20 05:46:32;;;;;;;13.30;8.50;;;;;;;;;;5048516;28;20045;-81
2023/09/20 05:48:59;;;;;;;10.80;8.48;;;;;;;;;;5060504;28;20533;-81
2023/09/20 05:51:26;;;;;;;10.35;7.97;;;;;;;;;;5044982;28;20021;-81
2023/09/20 05:53:52;;;;;;;10.77;8.70;;;;;;;;;;5044445;28;20531;-81
2023/09/20 05:56:19;;;;;;;9.75;8.38;;;;;;;;;;5043760;28;20033;-81
2023/09/20 05:58:45;;;;;;;10.15;7.78;;;;;;;;;;5043061;28;20087;-80
2023/09/20 06:01:12;;;;;;;9.65;8.55;;;;;;;;;;5025538;28;20044;-80
2023/09/20 06:03:39;;;;;;;12.07;8.95;;;;;;;;;;5024213;28;20487;-82
2023/09/20 06:06:09;;;;;;;11.70;8.70;;;;;;;;;;5044726;28;20084;-84
2023/09/20 06:08:36;;;;;;;10.40;8.45;;;;;;;;;;5043004;28;20120;-82
2023/09/20 06:11:06;;;;;;;11.20;8.40;;;;;;;;;;5026599;28;20033;-83
2023/09/20 06:13:32;;;;;;;11.02;8.20;;;;;;;;;;5045203;28;20659;-81
2023/09/20 06:15:59;;;;;;;9.93;8.18;;;;;;;;;;5025914;28;20129;-82
2023/09/20 06:18:25;;;;;;;12.05;8.60;;;;;;;;;;5027122;28;20396;-82
2023/09/20 06:20:55;;;;;;;9.70;8.35;;;;;;;;;;5045297;28;20036;-83
2023/09/20 06:23:24;;;;;;;12.57;8.77;;;;;;;;;;5044359;28;20037;-82
2023/09/20 06:25:50;;;;;;;9.55;8.48;;;;;;;;;;5043615;28;20127;-83
2023/09/20 06:28:17;;;;;;;15.40;8.48;;;;;;;;;;5044206;28;20672;-81
2023/09/20 06:30:43;;;;;;;11.73;8.20;;;;;;;;;;5044563;28;20453;-81
2023/09/20 06:33:11;;;;;;;10.07;8.43;;;;;;;;;;5043532;28;20056;-83
2023/09/20 06:35:40;;;;;;;11.07;8.25;;;;;;;;;;5025442;28;20033;-80
2023/09/20 06:38:09;;;;;;;12.55;8.15;;;;;;;;;;5044642;28;20041;-83
2023/09/20 06:40:36;;;;;;;12.13;8.05;;;;;;;;;;5045815;28;20033;-82
2023/09/20 06:43:03;;;;;;;11.95;7.97;;;;;;;;;;5043757;28;20067;-82
2023/09/20 06:45:29;;;;;;;9.63;7.75;;;;;;;;;;5044737;28;20132;-83
2023/09/20 06:47:55;;;;;;;8.93;7.57;;;;;;;;;;5028084;28;20745;-79
2023/09/20 06:50:22;;;;;;;11.38;7.55;;;;;;;;;;5043196;28;20045;-83
2023/09/20 06:52:50;;;;;;;13.13;8.48;;;;;;;;;;5043879;28;20503;-83
2023/09/20 06:55:18;;;;;;;9.45;7.82;;;;;;;;;;5046832;28;20048;-77
2023/09/20 06:57:47;;;;;;;9.75;7.78;;;;;;;;;;5030048;28;20041;-83
2023/09/20 07:00:26;;;;;;;9.30;7.65;;;;;;;;;;5027923;28;20545;-82
2023/09/20 07:02:58;;;;;;;12.13;7.65;;;;;;;;;;5046423;28;20067;-85
2023/09/20 07:05:28;;;;;;;11.13;7.68;;;;;;;;;;5042561;28;20136;-80
2023/09/20 07:07:55;;;;;;;9.80;7.38;;;;;;;;;;5029937;28;20037;-83
2023/09/20 07:10:22;;;;;;;11.60;7.70;;;;;;;;;;5047658;28;20052;-81
2023/09/20 07:12:49;;;;;;;9.45;7.13;;;;;;;;;;5028714;28;20040;-84
2023/09/20 07:15:18;;;;;;;10.18;7.97;;;;;;;;;;5047477;28;21526;-86
2023/09/20 07:17:45;;;;;;;9.32;6.97;;;;;;;;;;5047800;28;20049;-85
2023/09/20 07:20:17;;;;;;;9.25;7.80;;;;;;;;;;5011298;28;20033;-85
2023/09/20 07:22:47;;;;;;;8.90;7.22;;;;;;;;;;5014339;28;20040;-86
2023/09/20 07:25:19;;;;;;;10.63;7.63;;;;;;;;;;5012121;28;20041;-86
2023/09/20 07:27:55;;;;;;;8.85;7.28;;;;;;;;;;5029408;28;20025;-84
2023/09/20 07:30:22;;;;;;;10.32;7.63;;;;;;;;;;5022073;28;20032;-82
2023/09/20 07:32:52;;;;;;;9.60;7.60;;;;;;;;;;5050980;28;20041;-79
2023/09/20 07:35:36;;;;;;;16.52;7.78;;;;;;;;;;5022276;28;20033;-86
2023/09/20 07:38:04;;;;;;;9.77;7.68;;;;;;;;;;5036587;28;20048;-85
2023/09/20 07:40:30;;;;;;;11.35;7.28;;;;;;;;;;5024856;28;20037;-85
2023/09/20 07:43:04;;;;;;;12.25;7.57;;;;;;;;;;5012242;28;20040;-83
2023/09/20 07:45:38;;;;;;;11.85;7.32;;;;;;;;;;5028291;28;20512;-84
2023/09/20 07:48:18;;;;;;;8.18;6.90;;;;;;;;;;5029312;28;20450;-86
2023/09/20 07:50:49;;;;;;;8.90;7.40;;;;;;;;;;5029271;28;20067;-82
2023/09/20 07:53:16;;;;;;;8.82;7.45;;;;;;;;;;5027862;28;20790;-85
2023/09/20 07:55:48;;;;;;;9.43;7.53;;;;;;;;;;4998053;28;20760;-86
2023/09/20 07:58:15;;;;;;;8.75;7.63;;;;;;;;;;5034925;28;20070;-83
2023/09/20 08:00:45;;;;;;;9.20;7.25;;;;;;;;;;5052366;28;20115;-84
2023/09/20 08:03:12;;;;;;;10.13;7.40;;;;;;;;;;5053270;28;20374;-84
2023/09/20 08:05:38;;;;;;;9.55;7.20;;;;;;;;;;5026899;28;20033;-85
2023/09/20 08:08:06;;;;;;;10.23;7.55;;;;;;;;;;5015550;28;20466;-85
2023/09/20 08:10:33;;;;;;;8.60;7.10;;;;;;;;;;5029251;28;20135;-87
2023/09/20 08:13:00;;;;;;;8.40;7.53;;;;;;;;;;4996555;28;20041;-86
2023/09/20 08:15:28;;;;;;;10.07;7.80;;;;;;;;;;5025906;28;20360;-85
2023/09/20 08:20:59;;;;;;;10.13;7.47;;;;;;;;;;5044692;28;20122;-85
2023/09/20 09:02:15;;;;;;;9.00;7.15;;;;;;;;;;5023462;28;20063;-83
2023/09/20 09:04:53;;;;;;;9.57;7.25;;;;;;;;;;5009951;28;20044;-85
2023/09/20 09:07:19;;;;;;;8.55;7.20;;;;;;;;;;5039996;28;20049;-83
2023/09/20 09:09:46;;;;;;;8.65;7.53;;;;;;;;;;5008473;28;20471;-86
2023/09/20 09:12:13;;;;;;;10.00;7.07;;;;;;;;;;5007761;28;20025;-86
2023/09/20 09:14:40;;;;;;;8.85;6.85;;;;;;;;;;5041811;28;20037;-86
2023/09/20 09:17:08;;;;;;;7.95;7.18;;;;;;;;;;5027355;28;20029;-85
2023/09/20 09:19:35;;;;;;;7.50;6.70;;;;;;;;;;5032944;28;20072;-86
2023/09/20 09:22:01;;;;;;;9.27;6.50;;;;;;;;;;5018768;28;20044;-83
2023/09/20 09:24:28;;;;;;;7.85;7.05;;;;;;;;;;5032527;28;20037;-84
2023/09/20 09:27:08;;;;;;;9.80;6.78;;;;;;;;;;5026925;28;20025;-86
2023/09/20 09:29:35;;;;;;;8.23;6.82;;;;;;;;;;5031661;28;20056;-85
2023/09/20 09:32:02;;;;;;;7.75;6.97;;;;;;;;;;5043196;28;20032;-83
2023/09/20 09:34:28;;;;;;;8.32;6.97;;;;;;;;;;5018414;28;20044;-82
2023/09/20 09:36:55;;;;;;;8.18;7.22;;;;;;;;;;5052786;28;20043;-82
2023/09/20 09:39:21;;;;;;;9.13;6.60;;;;;;;;;;5006183;28;20044;-83
2023/09/20 09:41:48;;;;;;;8.18;6.68;;;;;;;;;;4994330;28;20033;-82
2023/09/20 09:44:15;;;;;;;8.40;7.13;;;;;;;;;;5027268;28;20039;-81
2023/09/20 09:46:43;;;;;;;9.23;7.07;;;;;;;;;;5026620;28;20044;-83
2023/09/20 09:49:16;;;;;;;10.00;6.97;;;;;;;;;;5012993;28;20040;-83
2023/09/20 09:51:45;;;;;;;10.48;6.82;;;;;;;;;;5044109;28;20040;-85
2023/09/20 09:54:15;;;;;;;8.25;6.97;;;;;;;;;;5028034;28;20475;-85
2023/09/20 09:56:42;;;;;;;7.80;6.50;;;;;;;;;;5011841;28;20033;-85
2023/09/20 09:59:08;;;;;;;7.50;6.57;;;;;;;;;;5028187;28;20120;-85
2023/09/20 10:01:38;;;;;;;10.18;6.95;;;;;;;;;;5046799;28;20037;-86
2023/09/20 10:04:07;;;;;;;9.45;7.45;;;;;;;;;;5010834;28;20029;-81
2023/09/20 10:06:44;;;;;;;8.90;6.68;;;;;;;;;;5011301;28;20025;-88
2023/09/20 10:09:11;;;;;;;9.60;6.97;;;;;;;;;;5007012;28;20040;-80
2023/09/20 10:11:38;;;;;;;10.30;6.93;;;;;;;;;;5027026;28;20876;-80
2023/09/20 10:14:10;;;;;;;8.18;7.05;;;;;;;;;;5043670;28;20040;-81
2023/09/20 10:16:42;;;;;;;7.55;6.75;;;;;;;;;;5044700;28;20803;-81
2023/09/20 10:19:15;;;;;;;8.18;6.63;;;;;;;;;;5026776;28;20135;-81
2023/09/20 10:22:02;;;;;;;9.50;6.63;;;;;;;;;;5044963;28;20037;-81
2023/09/20 10:24:29;;;;;;;7.50;6.70;;;;;;;;;;5043499;28;20111;-80
2023/09/20 10:27:02;;;;;;;7.13;6.43;;;;;;;;;;5027444;28;20041;-80
2023/09/20 10:29:30;;;;;;;8.07;7.03;;;;;;;;;;5046986;28;20729;-79
2023/09/20 10:32:08;;;;;;;7.68;6.88;;;;;;;;;;5049428;28;20160;-80
2023/09/20 10:34:37;;;;;;;8.32;7.10;;;;;;;;;;5047404;28;20124;-80
2023/09/20 10:37:10;;;;;;;7.65;6.85;;;;;;;;;;5049355;28;20162;-80
2023/09/20 10:39:42;;;;;;;8.70;7.13;;;;;;;;;;5046516;28;20033;-80
2023/09/20 10:42:15;;;;;;;7.25;6.55;;;;;;;;;;5048526;28;20059;-81
2023/09/20 10:44:43;;;;;;;7.38;6.30;;;;;;;;;;5029738;28;20041;-80
2023/09/20 10:47:19;;;;;;;10.32;6.95;;;;;;;;;;5050075;28;21107;-80
2023/09/20 10:49:53;;;;;;;9.10;7.40;;;;;;;;;;5048875;28;20029;-80
2023/09/20 10:52:37;;;;;;;9.85;7.55;;;;;;;;;;5049175;28;20033;-80
2023/09/20 10:55:28;;;;;;;8.18;7.20;;;;;;;;;;5046350;28;20052;-81
2023/09/20 10:57:56;;;;;;;8.15;7.28;;;;;;;;;;5046562;28;20065;-79
2023/09/20 11:00:30;;;;;;;7.97;7.18;;;;;;;;;;5046645;28;20053;-79
2023/09/20 11:02:56;;;;;;;9.13;7.15;;;;;;;;;;5047774;28;20029;-79
2023/09/20 11:05:29;;;;;;;9.55;7.15;;;;;;;;;;5042554;28;20700;-80
2023/09/20 11:07:55;;;;;;;8.15;7.38;;;;;;;;;;5028920;28;20036;-80
2023/09/20 11:10:23;;;;;;;7.72;7.03;;;;;;;;;;5046694;28;20534;-79
2023/09/20 11:12:50;;;;;;;7.90;7.03;;;;;;;;;;5046270;28;20076;-81
2023/09/20 11:15:17;;;;;;;7.57;6.68;;;;;;;;;;5047744;28;20146;-82
2023/09/20 11:17:43;;;;;;;7.00;6.35;;;;;;;;;;5029221;28;20400;-81
2023/09/20 11:20:12;;;;;;;8.93;7.10;;;;;;;;;;5047164;28;20029;-81
2023/09/20 11:22:38;;;;;;;7.47;6.70;;;;;;;;;;5045978;28;20042;-81
2023/09/20 11:25:05;;;;;;;8.38;6.78;;;;;;;;;;5049443;28;20043;-81
2023/09/20 11:27:35;;;;;;;7.80;7.00;;;;;;;;;;5046305;28;20076;-80
2023/09/20 11:30:10;;;;;;;11.60;7.30;;;;;;;;;;5046958;28;20094;-80
2023/09/20 11:32:39;;;;;;;8.95;6.53;;;;;;;;;;5040850;28;20815;-80
2023/09/20 11:35:06;;;;;;;8.20;6.53;;;;;;;;;;5047887;28;20484;-81
2023/09/20 11:37:35;;;;;;;7.93;6.80;;;;;;;;;;5035829;28;20041;-81
2023/09/20 11:40:04;;;;;;;8.10;7.03;;;;;;;;;;5044086;28;20076;-81
2023/09/20 11:42:34;;;;;;;8.13;7.40;;;;;;;;;;5025313;28;20711;-81
2023/09/20 11:45:05;;;;;;;9.20;7.40;;;;;;;;;;5046748;28;20033;-81
2023/09/20 11:47:33;;;;;;;9.23;6.63;;;;;;;;;;5027330;28;20048;-81
2023/09/20 11:50:00;;;;;;;8.50;6.80;;;;;;;;;;5046194;28;20044;-81
2023/09/20 11:52:27;;;;;;;7.68;6.80;;;;;;;;;;5028856;28;20033;-81
2023/09/20 11:55:03;;;;;;;6.95;6.25;;;;;;;;;;5029110;28;20048;-81
2023/09/20 11:57:35;;;;;;;9.05;7.30;;;;;;;;;;5046658;28;20040;-80
2023/09/20 12:00:03;;;;;;;7.75;6.55;;;;;;;;;;5046338;28;20033;-80
2023/09/20 12:02:38;;;;;;;10.07;6.90;;;;;;;;;;5046070;28;20037;-80
2023/09/20 12:05:05;;;;;;;7.53;6.72;;;;;;;;;;5047178;28;20036;-80
2023/09/20 12:07:32;;;;;;;7.30;6.60;;;;;;;;;;5045446;28;20029;-80
2023/09/20 12:09:58;;;;;;;7.18;6.47;;;;;;;;;;5045240;28;20041;-81
2023/09/20 12:12:25;;;;;;;7.15;6.45;;;;;;;;;;5045595;28;20475;-81
2023/09/20 12:14:51;;;;;;;7.07;6.47;;;;;;;;;;5046403;28;20055;-80
2023/09/20 12:17:17;;;;;;;15.77;7.00;;;;;;;;;;5029507;28;20041;-81
2023/09/20 12:19:44;;;;;;;9.90;6.35;;;;;;;;;;5046053;28;20048;-80
2023/09/20 12:22:10;;;;;;;9.88;6.57;;;;;;;;;;5045473;28;20037;-80
2023/09/20 12:24:36;;;;;;;7.97;7.18;;;;;;;;;;5046615;28;20075;-80
2023/09/20 12:27:05;;;;;;;7.20;6.50;;;;;;;;;;5046552;28;20393;-80
2023/09/20 12:29:31;;;;;;;9.05;6.80;;;;;;;;;;5026087;28;20029;-80
2023/09/20 12:31:57;;;;;;;9.25;6.80;;;;;;;;;;5046351;28;20029;-81
2023/09/20 12:34:24;;;;;;;7.03;6.38;;;;;;;;;;5028860;28;20075;-81
2023/09/20 12:36:51;;;;;;;6.65;5.95;;;;;;;;;;5045791;28;20033;-81
2023/09/20 12:39:17;;;;;;;7.20;6.15;;;;;;;;;;5028519;28;20865;-81
2023/09/20 12:41:46;;;;;;;6.70;5.95;;;;;;;;;;5046251;28;20033;-81
2023/09/20 12:44:12;;;;;;;6.90;6.05;;;;;;;;;;5043818;28;20034;-81
2023/09/20 12:46:39;;;;;;;6.22;5.68;;;;;;;;;;5046020;28;20509;-83
2023/09/20 12:49:05;;;;;;;7.40;6.28;;;;;;;;;;5044939;28;20029;-81
2023/09/20 12:51:31;;;;;;;8.88;6.70;;;;;;;;;;5046151;28;20028;-80
2023/09/20 12:53:58;;;;;;;8.20;6.22;;;;;;;;;;5045357;28;20618;-81
2023/09/20 12:56:24;;;;;;;6.30;5.70;;;;;;;;;;5044164;28;20476;-80
2023/09/20 12:58:52;;;;;;;6.88;6.18;;;;;;;;;;5045538;28;20083;-80
2023/09/20 13:01:18;;;;;;;9.55;7.07;;;;;;;;;;5015249;28;20033;-80
2023/09/20 13:03:44;;;;;;;8.32;6.60;;;;;;;;;;5044142;28;20422;-81
2023/09/20 13:06:14;;;;;;;9.50;6.53;;;;;;;;;;5046001;28;20064;-81
2023/09/20 13:08:41;;;;;;;9.38;6.50;;;;;;;;;;5043633;28;20132;-81
2023/09/20 13:11:10;;;;;;;8.52;6.18;;;;;;;;;;5041114;28;20144;-81
2023/09/20 13:13:42;;;;;;;10.95;6.88;;;;;;;;;;5046484;28;20033;-81
2023/09/20 13:16:09;;;;;;;7.93;6.53;;;;;;;;;;5044316;28;20047;-81
2023/09/20 13:18:38;;;;;;;7.05;6.25;;;;;;;;;;5026766;28;20044;-81
2023/09/20 13:21:05;;;;;;;6.60;6.00;;;;;;;;;;5045345;28;20058;-84
2023/09/20 13:23:32;;;;;;;7.43;6.40;;;;;;;;;;5044926;28;20495;-83
2023/09/20 13:26:00;;;;;;;6.50;5.90;;;;;;;;;;5030235;28;20069;-85
2023/09/20 13:28:27;;;;;;;7.82;6.45;;;;;;;;;;5044461;28;20068;-86
2023/09/20 13:30:54;;;;;;;7.00;6.30;;;;;;;;;;5024823;28;20526;-84
2023/09/20 13:33:20;;;;;;;8.10;6.15;;;;;;;;;;5042286;28;20082;-86
2023/09/20 13:35:46;;;;;;;9.60;6.40;;;;;;;;;;5028141;28;20453;-83
2023/09/20 13:38:13;;;;;;;9.00;5.80;;;;;;;;;;5026766;28;20087;-84
2023/09/20 13:40:41;;;;;;;7.70;6.38;;;;;;;;;;5010208;28;20032;-83
2023/09/20 13:43:13;;;;;;;7.88;6.40;;;;;;;;;;5027533;28;20434;-83
2023/09/20 13:45:43;;;;;;;7.03;5.95;;;;;;;;;;5025919;28;20040;-85
2023/09/20 13:48:11;;;;;;;7.18;6.20;;;;;;;;;;5012742;28;20037;-88
2023/09/20 13:50:39;;;;;;;7.45;6.70;;;;;;;;;;4994849;28;20516;-86
2023/09/20 13:53:06;;;;;;;7.25;6.18;;;;;;;;;;5027852;28;20712;-87
2023/09/20 13:55:32;;;;;;;7.93;6.47;;;;;;;;;;5025623;28;20041;-83
2023/09/20 13:58:00;;;;;;;7.50;5.93;;;;;;;;;;5013828;28;20033;-84
2023/09/20 14:00:30;;;;;;;7.30;6.22;;;;;;;;;;5043887;28;20035;-83
2023/09/20 14:02:57;;;;;;;7.35;5.85;;;;;;;;;;5026780;28;20984;-84
2023/09/20 14:05:24;;;;;;;7.55;6.63;;;;;;;;;;5047549;28;20034;-83
2023/09/20 14:07:51;;;;;;;9.30;6.78;;;;;;;;;;5015524;28;20040;-83
2023/09/20 14:10:19;;;;;;;8.07;6.50;;;;;;;;;;5015696;28;20037;-84
2023/09/20 14:12:46;;;;;;;9.63;6.25;;;;;;;;;;5031690;28;20551;-84
2023/09/20 14:15:15;;;;;;;8.63;7.20;;;;;;;;;;5031591;28;20076;-85
2023/09/20 14:17:45;;;;;;;7.40;6.60;;;;;;;;;;5015755;28;20039;-85
2023/09/20 14:20:15;;;;;;;8.95;6.43;;;;;;;;;;5047405;28;20036;-86
2023/09/20 14:22:42;;;;;;;7.28;6.57;;;;;;;;;;5015429;28;20029;-87
2023/09/20 14:25:11;;;;;;;7.30;6.50;;;;;;;;;;5060338;28;20090;-84
2023/09/20 14:27:41;;;;;;;7.35;6.60;;;;;;;;;;5030645;28;20032;-85
2023/09/20 14:30:11;;;;;;;7.75;6.38;;;;;;;;;;5015222;28;20025;-84
2023/09/20 14:32:41;;;;;;;6.97;6.32;;;;;;;;;;5028923;28;20060;-85
2023/09/20 14:35:08;;;;;;;7.35;6.45;;;;;;;;;;5016253;28;20120;-85
2023/09/20 14:37:38;;;;;;;9.23;6.57;;;;;;;;;;5015928;28;20039;-85
2023/09/20 14:40:12;;;;;;;9.23;6.53;;;;;;;;;;5029075;28;20029;-84
2023/09/20 14:42:44;;;;;;;7.78;7.00;;;;;;;;;;5016333;28;20946;-85
2023/09/20 14:45:16;;;;;;;8.18;7.10;;;;;;;;;;5033637;28;20025;-86
2023/09/20 14:47:45;;;;;;;8.27;6.68;;;;;;;;;;5060310;28;20053;-85
2023/09/20 14:50:12;;;;;;;7.88;6.85;;;;;;;;;;5031292;28;20057;-86
2023/09/20 14:52:40;;;;;;;7.95;6.78;;;;;;;;;;5046680;28;20187;-86
2023/09/20 14:55:06;;;;;;;9.48;7.20;;;;;;;;;;5012947;28;20030;-84
2023/09/20 14:57:33;;;;;;;7.78;6.97;;;;;;;;;;5047347;28;20029;-88
2023/09/20 15:00:06;;;;;;;8.65;6.93;;;;;;;;;;5014033;28;20068;-85
2023/09/20 15:02:33;;;;;;;8.10;7.30;;;;;;;;;;5026508;28;20037;-86
2023/09/20 15:05:00;;;;;;;7.95;7.13;;;;;;;;;;5030394;28;20037;-84
2023/09/20 15:07:28;;;;;;;11.20;6.95;;;;;;;;;;5026412;28;20085;-85
2023/09/20 15:09:54;;;;;;;9.68;7.15;;;;;;;;;;5030665;28;20045;-82
2023/09/20 15:12:20;;;;;;;8.95;7.15;;;;;;;;;;5029116;28;21526;-82
2023/09/20 15:14:47;;;;;;;7.90;6.93;;;;;;;;;;5045678;28;20048;-82
2023/09/20 15:17:13;;;;;;;8.98;6.75;;;;;;;;;;5032704;28;20045;-83
2023/09/20 15:19:40;;;;;;;14.35;7.05;;;;;;;;;;5028062;28;20052;-83